Time;durP1;ratioP1;P1;durP2;ratioP2;P2;SDS_P1;SDS_P2;PMS_P1;PMS_P2;Temp;Humidity;BMP_temperature;BMP_pressure;BME280_temperature;BME280_humidity;BME280_pressure;Samples;Min_cycle;Max_cycle;Signal;HPM_P1;HPM_P2
2022/11/23 00:01:47;;;;;;;22.08;5.20;;;;;;;7.63;100.00;99395.69;5068177;28;20025;-81
2022/11/23 00:04:13;;;;;;;17.60;4.82;;;;;;;7.64;100.00;99391.19;5073628;28;20029;-81
2022/11/23 00:06:39;;;;;;;17.15;4.22;;;;;;;7.64;100.00;99402.75;5087212;28;20567;-81
2022/11/23 00:09:05;;;;;;;11.05;3.90;;;;;;;7.62;100.00;99402.00;5071901;28;20032;-82
2022/11/23 00:11:33;;;;;;;18.13;4.00;;;;;;;7.63;100.00;99406.41;5078802;28;20464;-81
2022/11/23 00:13:58;;;;;;;18.05;4.13;;;;;;;7.63;100.00;99414.41;5076961;28;20374;-81
2022/11/23 00:16:26;;;;;;;16.95;4.43;;;;;;;7.64;100.00;99413.44;5074574;28;20063;-81
2022/11/23 00:18:53;;;;;;;13.07;3.80;;;;;;;7.63;100.00;99411.75;5061329;28;20101;-81
2022/11/23 00:21:21;;;;;;;18.17;4.18;;;;;;;7.62;100.00;99407.38;5069579;28;20032;-81
2022/11/23 00:23:46;;;;;;;16.85;4.35;;;;;;;7.62;100.00;99404.69;5062451;28;20056;-81
2022/11/23 00:26:12;;;;;;;15.90;3.88;;;;;;;7.65;100.00;99419.63;5074890;28;20161;-81
2022/11/23 00:28:39;;;;;;;15.40;3.78;;;;;;;7.65;100.00;99415.13;5065766;28;20108;-81
2022/11/23 00:31:10;;;;;;;13.18;4.13;;;;;;;7.66;100.00;99422.19;5062590;28;20104;-81
2022/11/23 00:33:36;;;;;;;15.57;3.92;;;;;;;7.66;100.00;99416.00;5070928;28;20021;-81
2022/11/23 00:36:10;;;;;;;16.17;4.80;;;;;;;7.65;100.00;99416.97;5069674;28;20111;-81
2022/11/23 00:38:36;;;;;;;18.40;3.85;;;;;;;7.66;100.00;99421.34;5063134;28;20475;-81
2022/11/23 00:41:12;;;;;;;18.10;3.75;;;;;;;7.66;100.00;99422.19;5069748;28;20038;-82
2022/11/23 00:43:37;;;;;;;12.38;3.67;;;;;;;7.68;100.00;99424.72;5068654;28;20090;-82
2022/11/23 00:46:14;;;;;;;17.90;4.47;;;;;;;7.68;100.00;99427.41;5071355;28;20537;-81
2022/11/23 00:48:43;;;;;;;17.38;4.13;;;;;;;7.67;100.00;99417.66;5069271;28;20039;-82
2022/11/23 00:51:11;;;;;;;12.98;3.38;;;;;;;7.67;100.00;99429.22;5074947;28;20067;-81
2022/11/23 00:53:36;;;;;;;19.48;3.90;;;;;;;7.69;100.00;99423.75;5068675;28;20100;-81
2022/11/23 00:56:02;;;;;;;12.30;3.17;;;;;;;7.68;100.00;99417.53;5071105;28;20442;-81
2022/11/23 00:58:27;;;;;;;14.02;3.65;;;;;;;7.70;100.00;99428.09;5071244;28;20059;-81
2022/11/23 01:01:09;;;;;;;22.90;3.88;;;;;;;7.70;100.00;99425.44;5070668;28;20029;-81
2022/11/23 01:03:36;;;;;;;10.95;3.22;;;;;;;7.68;100.00;99425.56;5068345;28;20033;-82
2022/11/23 01:06:07;;;;;;;14.55;3.45;;;;;;;7.68;100.00;99430.91;5077311;28;20036;-82
2022/11/23 01:08:33;;;;;;;17.67;3.95;;;;;;;7.67;100.00;99429.22;5068529;28;20020;-82
2022/11/23 01:11:00;;;;;;;15.75;3.70;;;;;;;7.67;100.00;99442.59;5072436;28;21012;-82
2022/11/23 01:13:26;;;;;;;12.73;3.47;;;;;;;7.67;100.00;99431.91;5087782;28;20029;-81
2022/11/23 01:15:51;;;;;;;13.63;3.38;;;;;;;7.67;100.00;99431.91;5071212;28;20032;-82
2022/11/23 01:18:16;;;;;;;14.75;3.33;;;;;;;7.67;100.00;99442.59;5074784;28;20046;-82
2022/11/23 01:20:42;;;;;;;15.38;3.30;;;;;;;7.67;100.00;99436.38;5069166;28;20032;-82
2022/11/23 01:23:07;;;;;;;13.57;3.53;;;;;;;7.65;100.00;99436.50;5074777;28;20024;-82
2022/11/23 01:25:35;;;;;;;15.60;3.90;;;;;;;7.62;100.00;99439.44;5070418;28;20055;-82
2022/11/23 01:28:00;;;;;;;11.60;3.58;;;;;;;7.61;100.00;99434.22;5067946;28;20020;-82
2022/11/23 01:30:25;;;;;;;14.07;3.28;;;;;;;7.61;100.00;99443.09;5072030;28;20100;-81
2022/11/23 01:32:50;;;;;;;13.43;3.95;;;;;;;7.59;100.00;99450.41;5075427;28;20109;-82
2022/11/23 01:35:16;;;;;;;14.77;3.15;;;;;;;7.59;100.00;99447.72;5079575;28;20035;-82
2022/11/23 01:37:41;;;;;;;14.10;3.40;;;;;;;7.60;100.00;99449.44;5069196;28;20523;-82
2022/11/23 01:40:07;;;;;;;12.85;3.17;;;;;;;7.61;100.00;99451.13;5068381;28;20028;-82
2022/11/23 01:42:53;;;;;;;13.82;3.42;;;;;;;7.63;100.00;99454.53;5069093;28;20450;-82
2022/11/23 01:45:57;;;;;;;12.45;3.20;;;;;;;7.66;100.00;99461.44;5068526;28;20052;-82
2022/11/23 01:48:52;;;;;;;14.85;3.40;;;;;;;7.67;100.00;99464.00;5080653;28;20462;-82
2022/11/23 01:51:27;;;;;;;10.98;3.17;;;;;;;7.66;100.00;99462.28;5065465;28;20050;-82
2022/11/23 01:53:58;;;;;;;13.98;3.67;;;;;;;7.68;100.00;99468.34;5081764;28;20024;-82
2022/11/23 01:56:29;;;;;;;14.80;3.25;;;;;;;7.69;100.00;99463.88;5069677;28;20704;-82
2022/11/23 01:58:58;;;;;;;15.70;3.00;;;;;;;7.70;100.00;99463.75;5063845;28;20028;-82
2022/11/23 02:01:23;;;;;;;18.80;3.95;;;;;;;7.72;100.00;99462.75;5064940;28;20028;-81
2022/11/23 02:03:50;;;;;;;13.05;3.15;;;;;;;7.72;100.00;99462.75;5065798;28;20380;-82
2022/11/23 02:06:18;;;;;;;14.85;3.30;;;;;;;7.73;100.00;99467.13;5068593;28;20048;-82
2022/11/23 02:08:44;;;;;;;14.38;3.25;;;;;;;7.73;100.00;99473.34;5055870;28;20050;-81
2022/11/23 02:11:12;;;;;;;14.13;3.45;;;;;;;7.75;100.00;99468.69;5083579;28;20068;-82
2022/11/23 02:13:38;;;;;;;13.68;3.50;;;;;;;7.75;100.00;99467.84;5076960;28;20666;-82
2022/11/23 02:16:04;;;;;;;14.80;3.67;;;;;;;7.76;100.00;99459.69;5057017;28;20115;-82
2022/11/23 02:18:31;;;;;;;14.95;3.30;;;;;;;7.77;100.00;99463.22;5068629;28;20033;-82
2022/11/23 02:21:01;;;;;;;9.95;2.90;;;;;;;7.78;100.00;99473.78;5053709;28;20070;-82
2022/11/23 02:23:38;;;;;;;19.73;4.13;;;;;;;7.79;100.00;99472.81;5065868;28;20110;-82
2022/11/23 02:26:36;;;;;;;15.13;3.67;;;;;;;7.82;100.00;99474.41;5068057;28;20032;-81
2022/11/23 02:29:10;;;;;;;18.33;3.40;;;;;;;7.79;100.00;99477.28;5015218;28;20040;-82
2022/11/23 02:31:35;;;;;;;10.73;3.58;;;;;;;7.80;100.00;99477.16;5063737;28;20485;-82
2022/11/23 02:34:01;;;;;;;14.40;3.33;;;;;;;7.81;100.00;99481.53;5071129;28;20035;-82
2022/11/23 02:36:41;;;;;;;17.95;3.78;;;;;;;7.84;100.00;99488.47;5072745;28;20388;-82
2022/11/23 02:39:11;;;;;;;18.50;3.13;;;;;;;7.83;100.00;99481.41;5068661;28;20473;-82
2022/11/23 02:41:46;;;;;;;9.82;3.38;;;;;;;7.82;100.00;99485.94;5067264;28;20031;-82
2022/11/23 02:44:30;;;;;;;19.17;3.80;;;;;;;7.83;100.00;99487.63;5067074;28;20109;-82
2022/11/23 02:46:56;;;;;;;18.35;3.65;;;;;;;7.83;100.00;99484.09;5070802;28;20036;-82
2022/11/23 02:49:22;;;;;;;13.57;3.13;;;;;;;7.82;100.00;99485.09;5073288;28;20033;-82
2022/11/23 02:51:47;;;;;;;11.98;3.28;;;;;;;7.81;100.00;99489.56;5073803;28;20114;-82
2022/11/23 02:54:13;;;;;;;17.00;3.70;;;;;;;7.82;100.00;99485.94;5074419;28;20040;-82
2022/11/23 02:56:38;;;;;;;17.33;4.18;;;;;;;7.81;100.00;99486.06;5074930;28;20185;-82
2022/11/23 02:59:03;;;;;;;15.23;3.42;;;;;;;7.81;100.00;99486.06;5070129;28;20116;-82
2022/11/23 03:01:28;;;;;;;14.93;3.95;;;;;;;7.81;100.00;99481.53;5072697;28;20035;-82
2022/11/23 03:03:54;;;;;;;17.33;3.70;;;;;;;7.82;100.00;99485.09;5076826;28;20476;-82
2022/11/23 03:06:19;;;;;;;28.83;3.60;;;;;;;7.82;100.00;99488.59;5073252;28;20082;-83
2022/11/23 03:08:44;;;;;;;17.33;3.72;;;;;;;7.82;100.00;99488.59;5072307;28;20031;-82
2022/11/23 03:11:10;;;;;;;20.90;4.70;;;;;;;7.81;100.00;99492.25;5071385;28;20055;-82
2022/11/23 03:13:35;;;;;;;15.95;3.45;;;;;;;7.82;100.00;99487.75;5078768;28;20390;-82
2022/11/23 03:16:00;;;;;;;18.52;4.05;;;;;;;7.81;100.00;99494.91;5076253;28;20110;-82
2022/11/23 03:18:25;;;;;;;18.75;3.92;;;;;;;7.81;100.00;99489.56;5075580;28;20044;-82
2022/11/23 03:20:51;;;;;;;21.45;3.58;;;;;;;7.79;100.00;99494.22;5070306;28;20019;-82
2022/11/23 03:23:16;;;;;;;15.55;3.80;;;;;;;7.80;100.00;99492.38;5079941;28;20055;-82
2022/11/23 03:25:41;;;;;;;18.05;3.45;;;;;;;7.79;100.00;99501.38;5076161;28;20020;-82
2022/11/23 03:28:07;;;;;;;19.27;4.28;;;;;;;7.78;100.00;99497.00;5058952;28;20025;-82
2022/11/23 03:30:32;;;;;;;13.35;3.25;;;;;;;7.77;100.00;99501.50;5076568;28;20341;-82
2022/11/23 03:32:57;;;;;;;18.25;3.90;;;;;;;7.76;100.00;99493.59;5081874;28;20055;-82
2022/11/23 03:35:23;;;;;;;17.55;3.58;;;;;;;7.76;100.00;99493.59;5071797;28;20078;-82
2022/11/23 03:37:48;;;;;;;16.23;3.85;;;;;;;7.73;100.00;99480.50;5074481;28;20035;-82
2022/11/23 03:40:13;;;;;;;14.60;4.00;;;;;;;7.73;100.00;99485.84;5078393;28;20161;-82
2022/11/23 03:42:39;;;;;;;19.58;4.57;;;;;;;7.73;100.00;99485.84;5065572;28;20060;-82
2022/11/23 03:45:06;;;;;;;16.60;4.13;;;;;;;7.70;100.00;99493.16;5096474;28;20038;-82
2022/11/23 03:47:34;;;;;;;16.42;3.60;;;;;;;7.73;100.00;99491.19;5073681;28;20174;-82
2022/11/23 03:49:59;;;;;;;18.55;4.57;;;;;;;7.72;100.00;99484.13;5074151;28;20052;-82
2022/11/23 03:52:24;;;;;;;13.32;3.42;;;;;;;7.73;100.00;99489.38;5077527;28;20545;-82
2022/11/23 03:54:50;;;;;;;17.80;4.22;;;;;;;7.70;100.00;99487.81;5083011;28;20120;-82
2022/11/23 03:57:15;;;;;;;15.77;3.28;;;;;;;7.70;100.00;99485.13;5069602;28;20025;-82
2022/11/23 03:59:41;;;;;;;25.58;4.55;;;;;;;7.70;100.00;99485.13;5073243;28;20137;-82
2022/11/23 04:02:07;;;;;;;22.10;3.45;;;;;;;7.70;100.00;99487.81;5076132;28;20543;-82
2022/11/23 04:04:32;;;;;;;18.60;3.70;;;;;;;7.69;100.00;99501.31;5074656;28;20107;-82
2022/11/23 04:06:58;;;;;;;14.98;3.03;;;;;;;7.69;100.00;99502.13;5075953;28;20032;-82
2022/11/23 04:09:24;;;;;;;15.65;3.72;;;;;;;7.70;100.00;99505.66;5072748;28;20024;-82
2022/11/23 04:11:49;;;;;;;20.40;4.22;;;;;;;7.73;100.00;99509.91;5071913;28;20031;-83
2022/11/23 04:14:14;;;;;;;20.50;4.07;;;;;;;7.72;100.00;99502.84;5071811;28;20036;-82
2022/11/23 04:16:40;;;;;;;16.75;3.67;;;;;;;7.74;100.00;99503.59;5061417;28;20029;-82
2022/11/23 04:19:05;;;;;;;16.63;3.83;;;;;;;7.73;100.00;99501.88;5061398;28;20037;-82
2022/11/23 04:21:30;;;;;;;13.65;3.05;;;;;;;7.73;100.00;99496.53;5072464;28;20040;-82
2022/11/23 04:23:55;;;;;;;15.32;3.30;;;;;;;7.74;100.00;99492.91;5079064;28;20024;-82
2022/11/23 04:26:21;;;;;;;19.85;3.83;;;;;;;7.75;100.00;99497.28;5067978;28;20032;-82
2022/11/23 04:28:46;;;;;;;18.83;4.22;;;;;;;7.74;100.00;99495.56;5070436;28;20024;-82
2022/11/23 04:31:11;;;;;;;15.05;3.60;;;;;;;7.75;100.00;99497.28;5074439;28;20135;-82
2022/11/23 04:33:37;;;;;;;20.23;3.55;;;;;;;7.74;100.00;99487.53;5071007;28;20340;-81
2022/11/23 04:36:02;;;;;;;18.92;4.28;;;;;;;7.73;100.00;99485.84;5065879;28;20036;-82
2022/11/23 04:38:27;;;;;;;18.13;4.40;;;;;;;7.74;100.00;99495.56;5076937;28;20097;-82
2022/11/23 04:40:53;;;;;;;16.85;4.00;;;;;;;7.73;100.00;99486.72;5064534;28;20079;-82
2022/11/23 04:43:21;;;;;;;15.20;3.58;;;;;;;7.73;100.00;99489.38;5066532;28;20068;-81
2022/11/23 04:45:46;;;;;;;20.30;4.20;;;;;;;7.70;100.00;99495.81;5097678;28;20081;-82
2022/11/23 04:48:12;;;;;;;19.20;4.10;;;;;;;7.71;100.00;99488.63;5085909;28;20052;-82
2022/11/23 04:50:37;;;;;;;19.35;3.58;;;;;;;7.69;100.00;99499.47;5081931;28;20038;-82
2022/11/23 04:53:03;;;;;;;15.43;3.38;;;;;;;7.67;100.00;99503.25;5079057;28;20548;-82
2022/11/23 04:55:28;;;;;;;17.52;4.03;;;;;;;7.65;100.00;99492.66;5072498;28;20366;-81
2022/11/23 04:57:54;;;;;;;16.70;3.83;;;;;;;7.61;100.00;99499.25;5076513;28;20021;-82
2022/11/23 05:00:19;;;;;;;18.70;4.25;;;;;;;7.59;100.00;99500.38;5073708;28;20395;-82
2022/11/23 05:02:44;;;;;;;22.95;4.47;;;;;;;7.53;100.00;99502.56;5065526;28;20518;-82
2022/11/23 05:05:10;;;;;;;18.73;3.75;;;;;;;7.49;100.00;99503.78;5068621;28;20016;-82
2022/11/23 05:07:35;;;;;;;20.52;3.53;;;;;;;7.45;100.00;99488.13;5064252;28;20060;-82
2022/11/23 05:10:00;;;;;;;16.38;3.75;;;;;;;7.43;100.00;99490.09;5066461;28;20089;-82
2022/11/23 05:12:26;;;;;;;24.23;4.70;;;;;;;7.39;100.00;99488.63;5070689;28;20059;-82
2022/11/23 05:14:51;;;;;;;19.80;5.05;;;;;;;7.37;100.00;99485.25;5084347;28;20048;-82
2022/11/23 05:17:16;;;;;;;16.08;3.75;;;;;;;7.35;100.00;99491.56;5070282;28;20036;-82
2022/11/23 05:19:42;;;;;;;23.00;4.40;;;;;;;7.35;100.00;99483.53;5065495;28;20079;-82
2022/11/23 05:22:07;;;;;;;17.60;3.83;;;;;;;7.34;100.00;99481.84;5073601;28;20033;-81
2022/11/23 05:24:32;;;;;;;14.02;3.42;;;;;;;7.34;100.00;99489.84;5056960;28;20242;-82
2022/11/23 05:26:57;;;;;;;20.77;4.85;;;;;;;7.34;100.00;99489.00;5072444;28;20024;-82
2022/11/23 05:29:23;;;;;;;16.33;3.88;;;;;;;7.34;100.00;99481.84;5068628;28;20078;-82
2022/11/23 05:31:48;;;;;;;20.35;4.32;;;;;;;7.34;100.00;99481.84;5073266;28;20036;-82
2022/11/23 05:34:13;;;;;;;19.58;3.38;;;;;;;7.35;100.00;99488.88;5070562;28;20020;-82
2022/11/23 05:36:41;;;;;;;20.30;3.90;;;;;;;7.35;100.00;99490.72;5067962;28;20031;-82
2022/11/23 05:39:09;;;;;;;19.05;4.00;;;;;;;7.33;100.00;99488.16;5068939;28;20036;-81
2022/11/23 05:41:34;;;;;;;19.83;4.50;;;;;;;7.32;100.00;99499.84;5072352;28;20063;-82
2022/11/23 05:44:00;;;;;;;18.15;4.43;;;;;;;7.31;100.00;99502.63;5067140;28;20505;-82
2022/11/23 05:46:25;;;;;;;16.23;3.92;;;;;;;7.30;99.96;99495.56;5070632;28;20119;-82
2022/11/23 05:48:50;;;;;;;17.25;4.38;;;;;;;7.27;100.00;99490.50;5072373;28;20024;-82
2022/11/23 05:51:16;;;;;;;17.95;3.85;;;;;;;7.26;100.00;99491.44;5065342;28;20039;-82
2022/11/23 05:53:41;;;;;;;20.10;4.57;;;;;;;7.25;100.00;99495.13;5068082;28;20449;-82
2022/11/23 05:56:06;;;;;;;16.30;4.05;;;;;;;7.24;100.00;99493.41;5064708;28;20084;-82
2022/11/23 05:58:32;;;;;;;20.33;4.93;;;;;;;7.22;100.00;99496.22;5069743;28;20346;-82
2022/11/23 06:00:59;;;;;;;23.17;4.63;;;;;;;7.18;100.00;99497.44;5067754;28;20074;-82
2022/11/23 06:03:24;;;;;;;14.88;4.30;;;;;;;7.15;100.00;99497.69;5069462;28;20448;-82
2022/11/23 06:05:50;;;;;;;18.80;4.85;;;;;;;7.13;100.00;99496.94;5073343;28;20111;-82
2022/11/23 06:08:15;;;;;;;21.90;3.85;;;;;;;7.13;100.00;99494.25;5067836;28;20032;-82
2022/11/23 06:10:40;;;;;;;20.20;4.38;;;;;;;7.15;100.00;99503.03;5074690;28;20476;-82
2022/11/23 06:13:05;;;;;;;21.52;4.35;;;;;;;7.15;100.00;99500.34;5068719;28;20032;-82
2022/11/23 06:15:31;;;;;;;18.38;4.93;;;;;;;7.17;100.00;99506.41;5073187;28;20031;-82
2022/11/23 06:18:00;;;;;;;18.42;3.63;;;;;;;7.17;100.00;99503.72;5082507;28;20123;-82
2022/11/23 06:20:27;;;;;;;26.63;4.75;;;;;;;7.20;100.00;99499.97;5080964;28;20043;-82
2022/11/23 06:22:53;;;;;;;19.90;4.55;;;;;;;7.20;100.00;99503.47;5072552;28;20025;-82
2022/11/23 06:25:18;;;;;;;20.00;4.32;;;;;;;7.23;100.00;99505.91;5086960;28;20027;-82
2022/11/23 06:27:58;;;;;;;20.40;4.10;;;;;;;7.25;100.00;99503.13;5074498;28;20192;-82
2022/11/23 06:30:24;;;;;;;20.77;4.70;;;;;;;7.21;100.00;99507.88;5070494;28;20107;-82
2022/11/23 06:32:50;;;;;;;20.23;4.88;;;;;;;7.22;100.00;99506.91;5085795;28;20020;-82
2022/11/23 06:35:15;;;;;;;18.92;5.22;;;;;;;7.22;100.00;99504.22;5073424;28;20035;-82
2022/11/23 06:37:41;;;;;;;18.80;3.95;;;;;;;7.23;100.00;99510.41;5073830;28;20020;-82
2022/11/23 06:40:07;;;;;;;21.92;4.47;;;;;;;7.22;100.00;99511.38;5071919;28;20073;-81
2022/11/23 06:42:32;;;;;;;22.60;4.50;;;;;;;7.21;100.00;99507.88;5072051;28;20171;-82
2022/11/23 06:44:58;;;;;;;24.38;4.80;;;;;;;7.22;100.00;99506.91;5063966;28;20115;-82
2022/11/23 06:47:23;;;;;;;18.80;4.13;;;;;;;7.23;100.00;99511.25;5059855;28;20025;-82
2022/11/23 06:49:48;;;;;;;17.40;3.83;;;;;;;7.24;100.00;99517.47;5078850;28;20032;-82
2022/11/23 06:52:14;;;;;;;24.75;4.78;;;;;;;7.24;100.00;99520.97;5077354;28;20028;-82
2022/11/23 06:54:42;;;;;;;26.98;5.18;;;;;;;7.25;100.00;99517.34;5067460;28;20020;-82
2022/11/23 06:57:08;;;;;;;21.85;4.80;;;;;;;7.25;100.00;99525.34;5074632;28;20492;-82
2022/11/23 06:59:33;;;;;;;19.15;4.22;;;;;;;7.24;100.00;99523.66;5065803;28;20028;-82
2022/11/23 07:01:59;;;;;;;19.52;4.28;;;;;;;7.23;100.00;99529.94;5071499;28;20053;-82
2022/11/23 07:04:24;;;;;;;21.35;3.83;;;;;;;7.23;100.00;99537.13;5066010;28;20025;-82
2022/11/23 07:06:49;;;;;;;22.30;5.03;;;;;;;7.21;100.00;99531.91;5067417;28;20036;-81
2022/11/23 07:09:14;;;;;;;21.30;4.43;;;;;;;7.20;100.00;99537.38;5079188;28;20036;-82
2022/11/23 07:11:41;;;;;;;26.17;4.95;;;;;;;7.18;99.00;99542.84;5068920;28;20036;-82
2022/11/23 07:14:09;;;;;;;20.70;4.15;;;;;;;7.16;100.00;99544.81;5067573;28;20017;-82
2022/11/23 07:16:34;;;;;;;19.65;4.55;;;;;;;7.13;99.60;99551.25;5072006;28;20433;-82
2022/11/23 07:18:59;;;;;;;15.02;3.70;;;;;;;7.11;99.69;99552.31;5069133;28;20291;-82
2022/11/23 07:21:25;;;;;;;19.05;4.38;;;;;;;7.11;100.00;99552.31;5072040;28;20028;-81
2022/11/23 07:23:50;;;;;;;22.05;4.05;;;;;;;7.08;99.44;99560.59;5081189;28;20508;-82
2022/11/23 07:26:15;;;;;;;21.45;4.28;;;;;;;7.05;99.28;99568.84;5079650;28;20595;-81
2022/11/23 07:28:41;;;;;;;16.88;4.22;;;;;;;7.03;99.24;99568.09;5065163;28;20036;-82
2022/11/23 07:31:09;;;;;;;17.95;3.72;;;;;;;6.97;99.57;99574.81;5076944;28;20031;-81
2022/11/23 07:33:34;;;;;;;17.60;4.03;;;;;;;6.93;98.70;99571.50;5075521;28;20032;-81
2022/11/23 07:36:01;;;;;;;19.40;3.97;;;;;;;6.90;98.46;99574.44;5074488;28;20031;-81
2022/11/23 07:38:27;;;;;;;21.23;4.45;;;;;;;6.87;98.46;99577.34;5056320;28;20025;-82
2022/11/23 07:40:52;;;;;;;18.20;3.75;;;;;;;6.83;97.96;99574.03;5074662;28;20461;-81
2022/11/23 07:43:17;;;;;;;21.63;3.97;;;;;;;6.82;98.40;99582.19;5070900;28;20123;-81
2022/11/23 07:45:43;;;;;;;15.80;2.95;;;;;;;6.82;98.48;99590.19;5064466;28;20117;-81
2022/11/23 07:48:09;;;;;;;17.42;3.88;;;;;;;6.78;99.03;99592.25;5073189;28;20193;-81
2022/11/23 07:50:36;;;;;;;19.40;3.22;;;;;;;6.77;98.99;99589.72;5069762;28;20047;-81
2022/11/23 07:53:03;;;;;;;20.38;3.60;;;;;;;6.75;98.75;99595.19;5059252;28;20067;-82
2022/11/23 07:55:29;;;;;;;16.00;3.65;;;;;;;6.74;98.82;99604.16;5073260;28;20025;-81
2022/11/23 07:57:55;;;;;;;17.08;4.18;;;;;;;6.75;98.15;99602.31;5087374;28;20054;-82
2022/11/23 08:00:21;;;;;;;17.27;3.97;;;;;;;6.74;98.11;99606.81;5078224;28;20024;-82
2022/11/23 08:02:47;;;;;;;19.00;4.13;;;;;;;6.75;98.69;99602.31;5073691;28;20480;-82
2022/11/23 08:05:13;;;;;;;18.80;4.15;;;;;;;6.75;98.46;99607.66;5072848;28;20020;-82
2022/11/23 08:07:38;;;;;;;17.52;3.83;;;;;;;6.75;98.16;99597.84;5075477;28;20376;-81
2022/11/23 08:10:04;;;;;;;18.92;4.43;;;;;;;6.77;97.96;99605.72;5085705;28;20472;-82
2022/11/23 08:12:30;;;;;;;17.83;3.67;;;;;;;6.77;98.08;99603.06;5074855;28;20032;-81
2022/11/23 08:14:55;;;;;;;23.50;4.78;;;;;;;6.76;97.60;99602.19;5071818;28;20473;-82
2022/11/23 08:17:20;;;;;;;13.43;3.28;;;;;;;6.79;97.33;99609.13;5072588;28;20020;-81
2022/11/23 08:19:46;;;;;;;21.83;3.75;;;;;;;6.78;97.36;99602.09;5071728;28;20128;-82
2022/11/23 08:22:11;;;;;;;21.15;5.00;;;;;;;6.78;97.27;99591.41;5072788;28;20043;-82
2022/11/23 08:24:36;;;;;;;17.20;4.15;;;;;;;6.80;97.31;99600.16;5072453;28;20434;-82
2022/11/23 08:27:01;;;;;;;23.75;5.00;;;;;;;6.81;97.57;99608.03;5089210;28;20032;-82
2022/11/23 08:29:28;;;;;;;20.85;4.82;;;;;;;6.82;97.13;99612.41;5054557;28;20024;-82
2022/11/23 08:31:53;;;;;;;21.33;4.22;;;;;;;6.83;96.74;99611.44;5084157;28;20021;-82
2022/11/23 08:34:19;;;;;;;22.38;3.83;;;;;;;6.86;96.25;99617.53;5072917;28;20388;-82
2022/11/23 08:36:44;;;;;;;16.73;3.75;;;;;;;6.87;96.42;99612.06;5074119;28;20029;-82
2022/11/23 08:39:13;;;;;;;20.92;4.30;;;;;;;6.90;96.04;99606.47;5072540;28;20039;-81
2022/11/23 08:41:39;;;;;;;19.63;4.43;;;;;;;6.92;96.43;99617.03;5072681;28;20024;-82
2022/11/23 08:44:04;;;;;;;23.70;4.63;;;;;;;6.94;96.45;99617.75;5072258;28;20713;-82
2022/11/23 08:46:30;;;;;;;22.25;4.50;;;;;;;6.94;95.50;99620.44;5073744;28;20103;-82
2022/11/23 08:48:56;;;;;;;19.60;3.35;;;;;;;6.97;95.75;99614.88;5073869;28;20032;-82
2022/11/23 08:51:22;;;;;;;21.00;4.25;;;;;;;6.98;95.16;99609.41;5072169;28;20021;-82
2022/11/23 08:53:50;;;;;;;19.40;4.70;;;;;;;7.01;95.31;99608.28;5072173;28;20089;-82
2022/11/23 08:56:16;;;;;;;19.38;3.88;;;;;;;7.03;94.84;99605.50;5073917;28;20032;-82
2022/11/23 08:58:41;;;;;;;23.63;4.70;;;;;;;7.06;94.70;99608.81;5071852;28;20028;-81
2022/11/23 09:01:09;;;;;;;17.02;3.65;;;;;;;7.08;94.54;99608.69;5072519;28;20101;-82
2022/11/23 09:03:34;;;;;;;18.48;4.00;;;;;;;7.10;95.24;99604.06;5073623;28;20047;-82
2022/11/23 09:06:00;;;;;;;22.40;4.40;;;;;;;7.13;94.01;99598.47;5067038;28;20107;-82
2022/11/23 09:08:25;;;;;;;12.23;3.60;;;;;;;7.14;94.97;99601.00;5053886;28;20369;-81
2022/11/23 09:10:50;;;;;;;16.55;3.75;;;;;;;7.16;93.78;99595.56;5068739;28;20035;-82
2022/11/23 09:13:16;;;;;;;21.83;4.45;;;;;;;7.18;94.00;99598.97;5053690;28;20397;-81
2022/11/23 09:15:41;;;;;;;19.30;4.07;;;;;;;7.20;93.56;99605.03;5071959;28;20115;-81
2022/11/23 09:18:06;;;;;;;19.45;4.45;;;;;;;7.22;93.90;99600.44;5071649;28;20021;-82
2022/11/23 09:20:31;;;;;;;19.40;3.80;;;;;;;7.23;94.61;99593.25;5073671;28;20464;-82
2022/11/23 09:22:57;;;;;;;18.38;3.67;;;;;;;7.26;93.18;99584.97;5071889;28;20468;-82
2022/11/23 09:25:23;;;;;;;13.88;3.05;;;;;;;7.28;92.93;99599.09;5072803;28;20039;-81
2022/11/23 09:27:49;;;;;;;18.70;3.72;;;;;;;7.31;92.81;99588.16;5074098;28;20476;-82
2022/11/23 09:30:15;;;;;;;15.40;3.85;;;;;;;7.32;92.89;99585.34;5070738;28;20079;-81
2022/11/23 09:32:40;;;;;;;15.50;3.50;;;;;;;7.33;91.48;99588.88;5071403;28;20020;-82
2022/11/23 09:35:06;;;;;;;18.52;3.60;;;;;;;7.33;91.91;99578.19;5073662;28;20527;-82
2022/11/23 09:37:31;;;;;;;20.27;3.88;;;;;;;7.33;91.27;99579.00;5054507;28;20043;-82
2022/11/23 09:39:57;;;;;;;16.75;3.88;;;;;;;7.36;91.99;99580.59;5053815;28;20036;-81
2022/11/23 09:42:37;;;;;;;17.52;3.22;;;;;;;7.38;91.84;99575.13;5052792;28;20266;-82
2022/11/23 09:45:10;;;;;;;22.65;4.47;;;;;;;7.40;91.82;99570.53;5052950;28;20497;-81
2022/11/23 09:47:50;;;;;;;14.38;3.53;;;;;;;7.41;91.76;99557.03;5053625;28;20024;-82
2022/11/23 09:50:39;;;;;;;13.38;3.42;;;;;;;7.43;92.26;99559.59;5054152;28;20384;-81
2022/11/23 09:53:14;;;;;;;17.38;3.67;;;;;;;7.45;92.02;99546.94;5053540;28;20066;-81
2022/11/23 09:55:43;;;;;;;17.27;3.65;;;;;;;7.48;90.83;99546.69;5052111;28;20043;-82
2022/11/23 09:58:14;;;;;;;17.17;3.38;;;;;;;7.48;90.36;99547.56;5052968;28;20028;-82
2022/11/23 10:01:01;;;;;;;14.43;3.17;;;;;;;7.50;91.01;99550.94;5055749;28;20498;-82
2022/11/23 10:03:28;;;;;;;8.10;2.58;;;;;;;7.53;90.49;99536.47;5071125;28;20127;-82
2022/11/23 10:06:24;;;;;;;16.40;3.53;;;;;;;7.57;90.57;99537.06;5071899;28;20057;-82
2022/11/23 10:09:16;;;;;;;16.48;4.22;;;;;;;7.60;90.75;99529.66;5062190;28;20029;-82
2022/11/23 10:12:24;;;;;;;15.95;3.20;;;;;;;7.64;90.54;99535.59;5068738;28;20455;-82
2022/11/23 10:15:02;;;;;;;12.98;3.28;;;;;;;7.68;90.55;99526.34;5053570;28;20029;-82
2022/11/23 10:18:04;;;;;;;17.10;4.00;;;;;;;7.72;90.22;99532.28;5051679;28;20028;-82
2022/11/23 10:21:07;;;;;;;16.38;3.88;;;;;;;7.76;90.54;99531.91;5067714;28;20096;-82
2022/11/23 10:23:53;;;;;;;16.52;3.10;;;;;;;7.80;90.61;99521.78;5053275;28;20495;-82
2022/11/23 10:26:23;;;;;;;12.38;3.70;;;;;;;7.80;89.37;99530.66;5051794;28;20392;-82
2022/11/23 10:28:49;;;;;;;12.60;2.97;;;;;;;7.85;89.75;99527.63;5051784;28;20025;-82
2022/11/23 10:31:18;;;;;;;15.35;3.30;;;;;;;7.89;88.66;99529.03;5070646;28;20111;-82
2022/11/23 10:33:49;;;;;;;15.98;2.88;;;;;;;7.92;88.47;99528.81;5071547;28;20445;-82
2022/11/23 10:36:15;;;;;;;14.73;3.13;;;;;;;7.95;89.02;99523.22;5060619;28;20387;-82
2022/11/23 10:38:40;;;;;;;13.80;2.92;;;;;;;8.00;88.86;99517.47;5073646;28;20048;-82
2022/11/23 10:41:08;;;;;;;10.88;3.00;;;;;;;8.05;89.13;99524.13;5072216;28;20028;-82
2022/11/23 10:43:53;;;;;;;18.73;3.92;;;;;;;8.11;89.60;99519.22;5070630;28;20044;-82
2022/11/23 10:46:48;;;;;;;11.57;2.53;;;;;;;8.14;88.92;99510.94;5072605;28;20027;-82
2022/11/23 10:49:31;;;;;;;16.88;3.60;;;;;;;8.16;88.88;99520.53;5066808;28;20036;-82
2022/11/23 10:52:17;;;;;;;13.60;3.03;;;;;;;8.18;88.01;99523.09;5070862;28;20028;-82
2022/11/23 10:54:45;;;;;;;14.52;2.97;;;;;;;8.23;88.42;99521.72;5060225;28;20032;-83
2022/11/23 10:57:21;;;;;;;14.05;3.17;;;;;;;8.28;88.07;99513.28;5070963;28;20051;-82
2022/11/23 11:00:09;;;;;;;11.25;2.78;;;;;;;8.36;88.21;99505.47;5070253;28;20440;-81
2022/11/23 11:02:50;;;;;;;13.60;2.95;;;;;;;8.40;87.36;99501.56;5081916;28;20035;-82
2022/11/23 11:05:27;;;;;;;10.23;2.63;;;;;;;8.43;87.60;99495.06;5055287;28;20079;-82
2022/11/23 11:07:55;;;;;;;14.80;2.65;;;;;;;8.44;86.40;99494.13;5061057;28;20086;-82
2022/11/23 11:10:39;;;;;;;16.30;3.95;;;;;;;8.47;87.70;99490.34;5091404;28;20016;-82
2022/11/23 11:13:25;;;;;;;12.63;2.97;;;;;;;8.47;87.52;99484.97;5092066;28;20055;-82
2022/11/23 11:15:56;;;;;;;17.00;3.28;;;;;;;8.48;86.07;99490.19;5074347;28;20111;-82
2022/11/23 11:18:25;;;;;;;7.78;2.50;;;;;;;8.50;86.00;99485.56;5091360;28;20028;-82
2022/11/23 11:21:31;;;;;;;15.15;3.10;;;;;;;8.56;86.53;99485.03;5073895;28;20365;-82
2022/11/23 11:24:05;;;;;;;10.63;2.70;;;;;;;8.61;85.17;99481.97;5036699;28;20047;-81
2022/11/23 11:26:33;;;;;;;14.40;3.10;;;;;;;8.66;86.13;99474.34;5072285;28;20097;-82
2022/11/23 11:29:04;;;;;;;14.68;2.85;;;;;;;8.67;84.95;99462.66;5074234;28;20072;-83
2022/11/23 11:31:55;;;;;;;10.98;3.08;;;;;;;8.69;86.08;99458.00;5063288;28;20037;-82
2022/11/23 11:34:25;;;;;;;19.30;2.92;;;;;;;8.71;85.10;99460.56;5069492;28;20032;-82
2022/11/23 11:37:11;;;;;;;;;;;;;;;8.74;86.83;99450.44;5071097;28;20032;-81